Alam Padu — 9MGK6 — position and weather

sailwx.info

Track history (hours):
 
Tides and Currents Weather Stations Pressure Air Temp Water Temp Dewpoint Dewpoint Depression Visibility Wind Speed Wind Dir Waves Ship Positions

Alam Padu

Last reported at 2015-Apr-13 09:33 UTC. Time now 2015-May-07 03:32 UTC.
Position N 37°48' E 123°12'.
Warning: this ship's position is 23 days out of date.

Length 229 m; draft 7.4 m.

Type: Cargo ship. MMSI: 533924000.

Date/timePositionNaut miles runAvg speedWind from/ knotsBaromVisibWave heightAir tempDewpointWater temp
2015-Apr-13 09:33N 37°48' E 123°12'1312.6
2015-Apr-13 08:33N 37°49' E 122°56'1212.0
2015-Apr-13 07:34N 37°50' E 122°41'1211.7
2015-Apr-13 06:33N 37°51' E 122°26'1211.7
2015-Apr-13 05:33N 37°52' E 122°11'1211.7
2015-Apr-13 04:33N 37°50' E 121°57'1212.2
2015-Apr-13 03:33N 37°44' E 121°43'1212.0
2015-Apr-13 02:33N 37°38' E 121°30'7 6.0
2015-Apr-13 01:27N 37°35' E 121°23'0 0.0
2015-Apr-13 00:33N 37°35' E 121°23'0 0.0
2015-Apr-12 23:33N 37°35' E 121°23'0 0.0
2015-Apr-12 22:33N 37°35' E 121°23'0 0.0
2015-Apr-12 21:33N 37°35' E 121°23'0 0.0
2015-Apr-12 20:30N 37°35' E 121°23'0 0.0
2015-Apr-12 19:24N 37°35' E 121°23'0 0.0
2015-Apr-12 18:33N 37°35' E 121°23'0 0.0
2015-Apr-12 17:33N 37°35' E 121°23'0 0.0
2015-Apr-12 16:30N 37°35' E 121°23'0 0.0
2015-Apr-12 15:33N 37°35' E 121°23'0 0.0
2015-Apr-12 14:32N 37°35' E 121°23'0 0.0
2015-Apr-12 13:32N 37°35' E 121°23'0 0.0
2015-Apr-12 12:29N 37°35' E 121°23'0 0.0
2015-Apr-12 11:32N 37°35' E 121°23'0 0.0
2015-Apr-12 10:32N 37°35' E 121°23'0 0.0
2015-Apr-12 09:32N 37°35' E 121°23'0 0.0
2015-Apr-12 08:30N 37°35' E 121°23'0 0.0
2015-Apr-12 07:32N 37°35' E 121°23'0 0.0
2015-Apr-12 06:32N 37°35' E 121°23'0 0.0
2015-Apr-12 05:32N 37°35' E 121°23'0 0.0
2015-Apr-12 04:29N 37°35' E 121°23'0 0.0
2015-Apr-12 03:32N 37°35' E 121°23'0 0.0
2015-Apr-12 02:29N 37°35' E 121°23'0 0.0
2015-Apr-12 01:29N 37°35' E 121°23'0 0.0
2015-Apr-12 00:32N 37°35' E 121°23'0 0.0
2015-Apr-11 23:32N 37°35' E 121°23'0 0.0
2015-Apr-11 22:29N 37°35' E 121°23'0 0.0
2015-Apr-11 21:32N 37°35' E 121°23'0 0.0
2015-Apr-11 20:29N 37°35' E 121°23'0 0.0
2015-Apr-11 19:32N 37°35' E 121°23'0 0.0
2015-Apr-11 18:32N 37°35' E 121°23'0 0.0
2015-Apr-11 17:32N 37°35' E 121°23'0 0.0
2015-Apr-11 16:32N 37°35' E 121°23'0 0.0
2015-Apr-11 15:32N 37°35' E 121°23'0 0.0
2015-Apr-11 14:32N 37°35' E 121°23'0 0.0
2015-Apr-11 13:32N 37°35' E 121°23'0 0.0
2015-Apr-11 12:32N 37°35' E 121°23'0 0.0
2015-Apr-11 11:32N 37°35' E 121°23'0 0.0
2015-Apr-11 10:29N 37°35' E 121°23'0 0.0
2015-Apr-11 09:32N 37°35' E 121°23'0 0.0
2015-Apr-11 08:32N 37°35' E 121°23'0 0.0
2015-Apr-11 07:32N 37°35' E 121°23'0 0.0
2015-Apr-11 06:32N 37°35' E 121°23'0 0.0
2015-Apr-11 05:28N 37°35' E 121°23'0 0.0
2015-Apr-11 04:31N 37°35' E 121°23'0 0.0
2015-Apr-11 03:31N 37°35' E 121°23'0 0.0
2015-Apr-11 02:31N 37°35' E 121°23'0 0.0
2015-Apr-11 01:31N 37°35' E 121°23'0 0.0
2015-Apr-11 00:28N 37°35' E 121°23'0 0.1
2015-Apr-10 23:33N 37°35' E 121°23'4 3.8
2015-Apr-10 22:33N 37°36' E 121°27'5 4.6
2015-Apr-10 21:33N 37°40' E 121°31'0 0.4
2015-Apr-10 20:32N 37°41' E 121°31'0 0.1
2015-Apr-10 19:32N 37°40' E 121°31'3 2.9
2015-Apr-10 18:33N 37°42' E 121°34'1010.2
2015-Apr-10 17:33N 37°45' E 121°46'1110.8
2015-Apr-10 16:33N 37°48' E 121°59'1311.1
2015-Apr-10 15:22N 37°49' E 122°16'1111.2
2015-Apr-10 14:23N 37°48' E 122°30'1011.7
2015-Apr-10 13:31N 37°48' E 122°43'2611.4
2015-Apr-10 11:17N 37°46' E 123°15'810.9
2015-Apr-10 10:33N 37°45' E 123°25'9 9.3
2015-Apr-10 09:33N 37°42' E 123°36'1110.9
2015-Apr-10 08:33N 37°31' E 123°40'1110.5
2015-Apr-10 07:33N 37°21' E 123°41'1110.8
2015-Apr-10 06:33N 37°10' E 123°42'1111.0
2015-Apr-10 05:33N 36°59' E 123°45'1111.1
2015-Apr-10 04:33N 36°48' E 123°47'1211.2
2015-Apr-10 03:30N 36°37' E 123°49'2711.5
2015-Apr-10 01:10N 36°10' E 123°54'912.2
2015-Apr-10 00:25N 36°01' E 123°57'  
Track history (hours):
 
Tides and Currents Weather Stations Pressure Air Temp Water Temp Dewpoint Dewpoint Depression Visibility Wind Speed Wind Dir Waves Ship Positions

Alam Padu

Last reported at 2015-Apr-13 09:33 UTC. Time now 2015-May-07 03:33 UTC.
Position N 37°48' E 123°12'.
Warning: this ship's position is 23 days out of date.

Length 229 m; draft 7.4 m.

Type: Cargo ship. MMSI: 533924000.

Date/timePositionNaut miles runAvg speedWind from/ knotsBaromVisibWave heightAir tempDewpointWater temp
2015-Apr-13 09:33N 37°48' E 123°12'1312.6
2015-Apr-13 08:33N 37°49' E 122°56'1212.0
2015-Apr-13 07:34N 37°50' E 122°41'1211.7
2015-Apr-13 06:33N 37°51' E 122°26'1211.7
2015-Apr-13 05:33N 37°52' E 122°11'1211.7
2015-Apr-13 04:33N 37°50' E 121°57'1212.2
2015-Apr-13 03:33N 37°44' E 121°43'1212.0
2015-Apr-13 02:33N 37°38' E 121°30'7 6.0
2015-Apr-13 01:27N 37°35' E 121°23'0 0.0
2015-Apr-13 00:33N 37°35' E 121°23'0 0.0
2015-Apr-12 23:33N 37°35' E 121°23'0 0.0
2015-Apr-12 22:33N 37°35' E 121°23'0 0.0
2015-Apr-12 21:33N 37°35' E 121°23'0 0.0
2015-Apr-12 20:30N 37°35' E 121°23'0 0.0
2015-Apr-12 19:24N 37°35' E 121°23'0 0.0
2015-Apr-12 18:33N 37°35' E 121°23'0 0.0
2015-Apr-12 17:33N 37°35' E 121°23'0 0.0
2015-Apr-12 16:30N 37°35' E 121°23'0 0.0
2015-Apr-12 15:33N 37°35' E 121°23'0 0.0
2015-Apr-12 14:32N 37°35' E 121°23'0 0.0
2015-Apr-12 13:32N 37°35' E 121°23'0 0.0
2015-Apr-12 12:29N 37°35' E 121°23'0 0.0
2015-Apr-12 11:32N 37°35' E 121°23'0 0.0
2015-Apr-12 10:32N 37°35' E 121°23'0 0.0
2015-Apr-12 09:32N 37°35' E 121°23'0 0.0
2015-Apr-12 08:30N 37°35' E 121°23'0 0.0
2015-Apr-12 07:32N 37°35' E 121°23'0 0.0
2015-Apr-12 06:32N 37°35' E 121°23'0 0.0
2015-Apr-12 05:32N 37°35' E 121°23'0 0.0
2015-Apr-12 04:29N 37°35' E 121°23'0 0.0
2015-Apr-12 03:32N 37°35' E 121°23'0 0.0
2015-Apr-12 02:29N 37°35' E 121°23'0 0.0
2015-Apr-12 01:29N 37°35' E 121°23'0 0.0
2015-Apr-12 00:32N 37°35' E 121°23'0 0.0
2015-Apr-11 23:32N 37°35' E 121°23'0 0.0
2015-Apr-11 22:29N 37°35' E 121°23'0 0.0
2015-Apr-11 21:32N 37°35' E 121°23'0 0.0
2015-Apr-11 20:29N 37°35' E 121°23'0 0.0
2015-Apr-11 19:32N 37°35' E 121°23'0 0.0
2015-Apr-11 18:32N 37°35' E 121°23'0 0.0
2015-Apr-11 17:32N 37°35' E 121°23'0 0.0
2015-Apr-11 16:32N 37°35' E 121°23'0 0.0
2015-Apr-11 15:32N 37°35' E 121°23'0 0.0
2015-Apr-11 14:32N 37°35' E 121°23'0 0.0
2015-Apr-11 13:32N 37°35' E 121°23'0 0.0
2015-Apr-11 12:32N 37°35' E 121°23'0 0.0
2015-Apr-11 11:32N 37°35' E 121°23'0 0.0
2015-Apr-11 10:29N 37°35' E 121°23'0 0.0
2015-Apr-11 09:32N 37°35' E 121°23'0 0.0
2015-Apr-11 08:32N 37°35' E 121°23'0 0.0
2015-Apr-11 07:32N 37°35' E 121°23'0 0.0
2015-Apr-11 06:32N 37°35' E 121°23'0 0.0
2015-Apr-11 05:28N 37°35' E 121°23'0 0.0
2015-Apr-11 04:31N 37°35' E 121°23'0 0.0
2015-Apr-11 03:31N 37°35' E 121°23'0 0.0
2015-Apr-11 02:31N 37°35' E 121°23'0 0.0
2015-Apr-11 01:31N 37°35' E 121°23'0 0.0
2015-Apr-11 00:28N 37°35' E 121°23'0 0.1
2015-Apr-10 23:33N 37°35' E 121°23'4 3.8
2015-Apr-10 22:33N 37°36' E 121°27'5 4.6
2015-Apr-10 21:33N 37°40' E 121°31'0 0.4
2015-Apr-10 20:32N 37°41' E 121°31'0 0.1
2015-Apr-10 19:32N 37°40' E 121°31'3 2.9
2015-Apr-10 18:33N 37°42' E 121°34'1010.2
2015-Apr-10 17:33N 37°45' E 121°46'1110.8
2015-Apr-10 16:33N 37°48' E 121°59'1311.1
2015-Apr-10 15:22N 37°49' E 122°16'1111.2
2015-Apr-10 14:23N 37°48' E 122°30'1011.7
2015-Apr-10 13:31N 37°48' E 122°43'2611.4
2015-Apr-10 11:17N 37°46' E 123°15'810.9
2015-Apr-10 10:33N 37°45' E 123°25'9 9.3
2015-Apr-10 09:33N 37°42' E 123°36'1110.9
2015-Apr-10 08:33N 37°31' E 123°40'1110.5
2015-Apr-10 07:33N 37°21' E 123°41'1110.8
2015-Apr-10 06:33N 37°10' E 123°42'1111.0
2015-Apr-10 05:33N 36°59' E 123°45'1111.1
2015-Apr-10 04:33N 36°48' E 123°47'1211.2
2015-Apr-10 03:30N 36°37' E 123°49'2711.5
2015-Apr-10 01:10N 36°10' E 123°54'912.2
2015-Apr-10 00:25N 36°01' E 123°57'  

Dump ship's entire track history